GMT,Max TemperatureF,Mean TemperatureF,Min TemperatureF,Max Dew PointF,MeanDew PointF,Min DewpointF,Max Humidity, Mean Humidity, Min Humidity, Max Sea Level PressureIn, Mean Sea Level PressureIn, Min Sea Level PressureIn, Max VisibilityMiles, Mean VisibilityMiles, Min VisibilityMiles, Max Wind SpeedMPH, Mean Wind SpeedMPH, Max Gust SpeedMPH,PrecipitationIn, CloudCover, Events, WindDirDegrees
2012-12-1,45,41,36,43,33,28,93,74,56,30.01,29.97,29.86,6,6,6,20,12,,0.01,1,Rain,351
2012-12-2,39,34,28,36,32,25,100,92,61,30.01,29.97,29.86,6,6,4,15,5,,0.08,2,Rain,114
2012-12-3,47,43,39,45,40,37,97,79,67,29.68,29.63,29.56,6,6,6,26,17,37,0.04,3,Rain,287
2012-12-4,46,42,37,41,39,35,97,83,69,29.59,29.57,29.53,6,6,6,24,17,,0.03,3,Rain,307
2012-12-5,39,36,26,32,28,22,81,69,55,30.01,29.90,29.77,6,6,6,17,9,,0.00,1,,355
2012-12-6,44,36,28,43,36,26,93,88,67,29.95,29.67,29.36,6,5,4,32,16,43,0.39,5,Rain,198
2012-12-7,45,42,40,39,37,34,87,77,67,30.01,29.74,29.50,6,6,6,25,17,33,0.00,3,,346
2012-12-8,48,39,30,46,40,28,100,90,78,30.27,30.22,30.18,6,6,2,21,8,,0.01,5,Rain,265
2012-12-9,47,45,42,45,40,35,93,79,65,30.06,30.03,30.01,6,6,5,25,21,34,0.01,3,Rain,310
2012-12-10,41,38,33,34,32,30,83,75,63,30.42,30.32,30.21,6,6,6,13,9,,0.00,1,,23
2012-12-11,38,32,26,36,30,25,100,93,76,30.45,30.41,30.33,6,4,1,8,4,,0.00,,Fog,119
2012-12-12,33,30,28,32,30,28,100,99,83,30.15,30.03,29.89,3,2,0,13,9,,0.01,5,Fog,122
2012-12-13,34,29,24,30,27,23,100,90,74,29.74,29.65,29.53,6,6,5,10,7,,0.01,1,,109
2012-12-14,46,38,32,45,37,29,100,96,83,29.18,28.85,28.65,6,5,2,26,16,,0.47,6,Rain,121
2012-12-15,46,44,39,45,42,37,93,91,83,29.27,29.12,28.97,6,6,6,23,14,,0.00,5,Rain,201
2012-12-16,45,41,37,43,41,37,100,95,85,29.44,29.40,29.36,6,6,6,16,11,,0.12,3,Rain,148
2012-12-17,44,43,42,45,43,40,100,97,89,29.59,29.46,29.36,6,5,2,17,11,,0.35,5,Rain,251
2012-12-18,45,40,36,43,40,35,100,94,80,30.09,30.03,29.92,6,6,3,9,5,,0.00,4,Fog,46
2012-12-19,43,42,41,43,40,37,100,90,78,29.98,29.90,29.80,6,6,4,23,18,34,0.12,4,Rain,125
2012-12-20,44,43,42,43,42,40,100,95,88,29.56,29.47,29.42,6,5,3,22,18,,0.31,6,Rain,100
2012-12-21,44,42,40,45,42,39,100,95,92,29.86,29.79,29.62,6,6,6,15,9,,0.00,5,,295
2012-12-22,51,47,43,52,47,42,100,97,89,29.59,29.44,29.36,6,4,2,23,15,31,0.67,7,Rain,144
2012-12-23,48,46,43,46,43,40,87,83,72,29.62,29.48,29.30,6,6,6,38,26,54,0.00,2,Rain,246
2012-12-24,45,44,42,45,43,40,100,95,86,29.47,29.38,29.27,6,5,4,13,10,,0.08,3,Rain,150
2012-12-25,45,43,41,43,41,39,92,88,82,,,,,,,16,11,,0.04,,,-1
2012-12-26,46,45,44,45,42,39,100,86,71,29.56,29.44,29.33,6,6,3,30,20,,0.20,3,Rain,221
2012-12-27,45,42,39,43,39,37,97,86,71,30.01,29.69,29.39,6,6,4,24,9,,0.02,4,Rain,64
2012-12-28,52,46,41,48,46,38,100,91,77,29.83,29.72,29.59,6,6,4,26,19,,0.00,5,Rain,189
2012-12-29,47,44,42,48,43,36,100,90,68,29.42,29.37,29.33,6,6,4,24,15,,0.16,5,Rain,220
2012-12-30,50,46,41,46,42,35,93,85,68,29.62,29.58,29.50,6,6,3,37,30,40,0.08,6,Rain,242
2012-12-31,49,46,44,48,45,37,100,88,68,29.36,29.32,29.30,6,6,6,30,21,,0.08,5,Rain,246